Jardim De Angicos, Brazil
Current Conditions -  °F | °C
As of 3:00 PM on Saturday 25 Oct 2014 (Local Time) from SBNT Reporting Station
Few Clouds Few Clouds  
Wind Chill: 82°   Ceiling: Unl
Heat Index: 85°   Visibility: 6mi
Dew Point: 66°   Wind: 17mph
Humidity: 58%   Direction: 120°ESE
Pressure: 29.88"   Gusts: NA
Location:  5.65°S, 35.98°W
Report Text: SBNT 251800Z 12015KT 9999 FEW025 28/19 Q1012
Loading
Personal Weather Stations






























Interactive Weather Map
Tropical Storm Tracking
New forecast layout! Learn more

10-Day Weather Forecast

Advertisements
Track Severe Weather on mobile